This is the latest recevied weather packets stored in our database for station/object KQ4HDO. If no packets are shown the sender has not sent any weather packets the latest 10 day(s).
| Time | Temp. | Humidity | Pressure | Rain* | Wind** | Luminosity | Snow |
|---|---|---|---|---|---|---|---|
| 1777265703 | 17.78° C | 86% | 1009.3 hPa | 1.78 mm | - | - | - |
| 1777265103 | 17.22° C | 89% | 1009.7 hPa | 2.03 mm | - | - | - |
| 1777264503 | 17.22° C | 90% | 1009.9 hPa | 2.29 mm | - | - | - |
| 1777264203 | 17.78° C | 90% | 1010.1 hPa | 2.54 mm | - | - | - |
| 1777263603 | 17.78° C | 90% | 1010.6 hPa | 2.54 mm | - | - | - |
| 1777263003 | 17.78° C | 90% | 1010.6 hPa | 1.78 mm | - | - | - |
| 1777262703 | 17.78° C | 89% | 1010.6 hPa | 1.52 mm | - | - | - |
| 1777261503 | 18.33° C | 82% | 1010.2 hPa | 0.76 mm | - | - | - |
| 1777261203 | 18.33° C | 81% | 1010.2 hPa | 0.51 mm | - | - | - |
| 1777259103 | 20° C | 68% | 1010.2 hPa | 0 mm | - | - | - |
| 1777256703 | 22.22° C | 55% | 1009.8 hPa | 0 mm | - | - | - |
| 1777256403 | 22.22° C | 55% | 1009.8 hPa | 0 mm | - | - | - |
| 1777253104 | 22.78° C | 52% | 1009.5 hPa | 0 mm | - | - | - |
| 1777250237 | 23.89° C | 50% | 1009.2 hPa | 0 mm | - | - | - |
| 1777247403 | 24.44° C | 48% | 1008.7 hPa | 0 mm | - | - | - |
| 1777246203 | 24.44° C | 47% | 1008.3 hPa | 0 mm | - | - | - |
| 1777244403 | 25° C | 45% | 1008.8 hPa | 0 mm | - | - | - |
| 1777240803 | 25.56° C | 43% | 1008.6 hPa | 0 mm | - | - | - |
| 1777238403 | 26.67° C | 41% | 1009.3 hPa | 0 mm | - | - | - |
| 1777233303 | 26.11° C | 41% | 1010.4 hPa | 0 mm | - | - | - |
| 1777233003 | 26.11° C | 41% | 1010.3 hPa | 0 mm | - | - | - |
| 1777231203 | 26.67° C | 42% | 1010.6 hPa | 0 mm | - | - | - |
| 1777228803 | 27.22° C | 42% | 1011.3 hPa | 0 mm | - | - | - |
| 1777222503 | 25° C | 48% | 1012.7 hPa | 0 mm | - | - | - |
| 1777219503 | 22.78° C | 54% | 1013.1 hPa | 0 mm | - | - | - |
* Rain latest hour (hover to see other rain measurements)
** Current wind speed in m/s (hover to see current wind gust speed)